Brookline Village, Massachusetts
Current Conditions -  °F | °C
As of 8:54 AM on Wednesday 26 Nov 2014 (Local Time) from KBOS Reporting Station
Light Rain Light Rain  
Wind Chill: 39°   Ceiling: 5500
Heat Index: 44°   Visibility: 10mi
Dew Point: 30°   Wind: 9mph
Humidity: 58%   Direction: 340°NNW
Pressure: 30.2"   Gusts: NA
Location:  42.33°N, 71.12°W
Report Text: KBOS 261354Z 34008KT 10SM -RA OVC055 07/M01 A3020 RMK AO2 RAB20 SLP224 P0000 T00671011
Loading
Personal Weather Stations






























Interactive Weather Map New forecast layout! Learn more

10-Day Weather Forecast

Advertisements
Track Severe Weather on mobile